sensor_id;sensor_type;location;lat;lon;timestamp;temperature;humidity
78455;SHT31;67751;51.986;5.696;2023-04-19T00:01:30;12.4;60.5
78455;SHT31;67751;51.986;5.696;2023-04-19T00:04:00;12.5;60.5
78455;SHT31;67751;51.986;5.696;2023-04-19T00:06:29;12.5;60.6
78455;SHT31;67751;51.986;5.696;2023-04-19T00:08:59;12.5;60.9
78455;SHT31;67751;51.986;5.696;2023-04-19T00:11:29;12.5;61.2
78455;SHT31;67751;51.986;5.696;2023-04-19T00:13:58;12.5;61.0
78455;SHT31;67751;51.986;5.696;2023-04-19T00:16:28;12.5;61.0
78455;SHT31;67751;51.986;5.696;2023-04-19T00:18:57;12.6;60.9
78455;SHT31;67751;51.986;5.696;2023-04-19T00:21:28;12.6;60.5
78455;SHT31;67751;51.986;5.696;2023-04-19T00:23:58;12.6;61.4
78455;SHT31;67751;51.986;5.696;2023-04-19T00:26:27;12.6;60.9
78455;SHT31;67751;51.986;5.696;2023-04-19T00:28:57;12.6;61.3
78455;SHT31;67751;51.986;5.696;2023-04-19T00:31:26;12.6;60.7
78455;SHT31;67751;51.986;5.696;2023-04-19T00:33:56;12.6;61.0
78455;SHT31;67751;51.986;5.696;2023-04-19T00:36:26;12.7;61.4
78455;SHT31;67751;51.986;5.696;2023-04-19T00:38:57;12.7;61.4
78455;SHT31;67751;51.986;5.696;2023-04-19T00:41:26;12.7;61.5
78455;SHT31;67751;51.986;5.696;2023-04-19T00:43:58;12.7;60.8
78455;SHT31;67751;51.986;5.696;2023-04-19T00:46:29;12.7;61.3
78455;SHT31;67751;51.986;5.696;2023-04-19T00:48:59;12.7;60.8
78455;SHT31;67751;51.986;5.696;2023-04-19T00:51:29;12.7;60.2
78455;SHT31;67751;51.986;5.696;2023-04-19T00:53:59;12.7;60.8
78455;SHT31;67751;51.986;5.696;2023-04-19T00:56:33;12.7;60.8
78455;SHT31;67751;51.986;5.696;2023-04-19T00:59:03;12.7;60.7
78455;SHT31;67751;51.986;5.696;2023-04-19T01:01:33;12.7;61.5
78455;SHT31;67751;51.986;5.696;2023-04-19T01:04:05;12.7;60.8
78455;SHT31;67751;51.986;5.696;2023-04-19T01:06:35;12.7;60.3
78455;SHT31;67751;51.986;5.696;2023-04-19T01:09:08;12.7;60.4
78455;SHT31;67751;51.986;5.696;2023-04-19T01:11:38;12.7;60.7
78455;SHT31;67751;51.986;5.696;2023-04-19T01:14:07;12.7;61.1
78455;SHT31;67751;51.986;5.696;2023-04-19T01:16:39;12.6;60.9
78455;SHT31;67751;51.986;5.696;2023-04-19T01:19:11;12.6;60.9
78455;SHT31;67751;51.986;5.696;2023-04-19T01:21:40;12.6;60.7
78455;SHT31;67751;51.986;5.696;2023-04-19T01:24:12;12.6;60.8
78455;SHT31;67751;51.986;5.696;2023-04-19T01:26:41;12.6;60.9
78455;SHT31;67751;51.986;5.696;2023-04-19T01:29:11;12.6;60.7
78455;SHT31;67751;51.986;5.696;2023-04-19T01:31:42;12.5;61.1
78455;SHT31;67751;51.986;5.696;2023-04-19T01:34:15;12.5;61.1
78455;SHT31;67751;51.986;5.696;2023-04-19T01:36:45;12.5;60.9
78455;SHT31;67751;51.986;5.696;2023-04-19T01:39:15;12.5;61.1
78455;SHT31;67751;51.986;5.696;2023-04-19T01:41:44;12.5;61.8
78455;SHT31;67751;51.986;5.696;2023-04-19T01:44:14;12.4;61.8
78455;SHT31;67751;51.986;5.696;2023-04-19T01:46:43;12.4;61.8
78455;SHT31;67751;51.986;5.696;2023-04-19T01:49:15;12.4;61.7
78455;SHT31;67751;51.986;5.696;2023-04-19T01:51:45;12.4;62.2
78455;SHT31;67751;51.986;5.696;2023-04-19T01:54:14;12.4;61.4
78455;SHT31;67751;51.986;5.696;2023-04-19T01:56:44;12.4;61.7
78455;SHT31;67751;51.986;5.696;2023-04-19T01:59:13;12.4;61.9
78455;SHT31;67751;51.986;5.696;2023-04-19T02:01:43;12.3;61.9
78455;SHT31;67751;51.986;5.696;2023-04-19T02:04:13;12.3;62.0
78455;SHT31;67751;51.986;5.696;2023-04-19T02:06:42;12.3;62.0
78455;SHT31;67751;51.986;5.696;2023-04-19T02:09:12;12.3;61.9
78455;SHT31;67751;51.986;5.696;2023-04-19T02:11:42;12.3;62.2
78455;SHT31;67751;51.986;5.696;2023-04-19T02:14:11;12.2;62.1
78455;SHT31;67751;51.986;5.696;2023-04-19T02:16:42;12.2;62.6
78455;SHT31;67751;51.986;5.696;2023-04-19T02:19:11;12.2;62.6
78455;SHT31;67751;51.986;5.696;2023-04-19T02:21:41;12.2;62.7
78455;SHT31;67751;51.986;5.696;2023-04-19T02:24:12;12.1;63.0
78455;SHT31;67751;51.986;5.696;2023-04-19T02:26:42;12.1;62.8
78455;SHT31;67751;51.986;5.696;2023-04-19T02:29:11;12.1;63.0
78455;SHT31;67751;51.986;5.696;2023-04-19T02:31:43;12.1;63.0
78455;SHT31;67751;51.986;5.696;2023-04-19T02:34:13;12.1;63.0
78455;SHT31;67751;51.986;5.696;2023-04-19T02:36:42;12.1;63.1
78455;SHT31;67751;51.986;5.696;2023-04-19T02:39:12;12.1;63.0
78455;SHT31;67751;51.986;5.696;2023-04-19T02:41:43;12.0;63.0
78455;SHT31;67751;51.986;5.696;2023-04-19T02:44:13;12.0;63.0
78455;SHT31;67751;51.986;5.696;2023-04-19T02:46:49;12.0;62.7
78455;SHT31;67751;51.986;5.696;2023-04-19T02:49:19;12.0;63.0
78455;SHT31;67751;51.986;5.696;2023-04-19T02:51:49;11.9;63.2
78455;SHT31;67751;51.986;5.696;2023-04-19T02:54:20;11.9;63.7
78455;SHT31;67751;51.986;5.696;2023-04-19T02:56:49;11.9;64.1
78455;SHT31;67751;51.986;5.696;2023-04-19T02:59:19;11.9;63.8
78455;SHT31;67751;51.986;5.696;2023-04-19T03:01:48;11.9;64.0
78455;SHT31;67751;51.986;5.696;2023-04-19T03:04:18;11.9;64.2
78455;SHT31;67751;51.986;5.696;2023-04-19T03:06:48;11.9;63.9
78455;SHT31;67751;51.986;5.696;2023-04-19T03:09:18;11.9;64.0
78455;SHT31;67751;51.986;5.696;2023-04-19T03:11:47;11.9;64.1
78455;SHT31;67751;51.986;5.696;2023-04-19T03:14:19;11.9;63.8
78455;SHT31;67751;51.986;5.696;2023-04-19T03:16:49;11.9;63.7
78455;SHT31;67751;51.986;5.696;2023-04-19T03:19:19;11.9;63.7
78455;SHT31;67751;51.986;5.696;2023-04-19T03:21:48;11.9;64.1
78455;SHT31;67751;51.986;5.696;2023-04-19T03:24:19;11.9;63.7
78455;SHT31;67751;51.986;5.696;2023-04-19T03:26:53;12.0;63.5
78455;SHT31;67751;51.986;5.696;2023-04-19T03:29:23;12.0;63.5
78455;SHT31;67751;51.986;5.696;2023-04-19T03:31:53;12.0;63.9
78455;SHT31;67751;51.986;5.696;2023-04-19T03:34:22;12.0;63.5
78455;SHT31;67751;51.986;5.696;2023-04-19T03:36:52;12.0;63.7
78455;SHT31;67751;51.986;5.696;2023-04-19T03:39:22;12.0;63.7
78455;SHT31;67751;51.986;5.696;2023-04-19T03:41:51;12.0;63.9
78455;SHT31;67751;51.986;5.696;2023-04-19T03:44:21;12.0;63.2
78455;SHT31;67751;51.986;5.696;2023-04-19T03:46:50;12.0;63.0
78455;SHT31;67751;51.986;5.696;2023-04-19T03:49:20;12.0;63.7
78455;SHT31;67751;51.986;5.696;2023-04-19T03:51:49;12.0;63.5
78455;SHT31;67751;51.986;5.696;2023-04-19T03:54:19;12.0;63.2
78455;SHT31;67751;51.986;5.696;2023-04-19T03:56:49;12.0;63.3
78455;SHT31;67751;51.986;5.696;2023-04-19T03:59:18;12.0;63.1
78455;SHT31;67751;51.986;5.696;2023-04-19T04:01:48;12.0;62.8
78455;SHT31;67751;51.986;5.696;2023-04-19T04:04:18;12.0;62.4
78455;SHT31;67751;51.986;5.696;2023-04-19T04:06:47;12.0;62.9
78455;SHT31;67751;51.986;5.696;2023-04-19T04:09:17;12.0;62.0
78455;SHT31;67751;51.986;5.696;2023-04-19T04:11:47;12.0;61.7
78455;SHT31;67751;51.986;5.696;2023-04-19T04:14:16;12.0;62.0
78455;SHT31;67751;51.986;5.696;2023-04-19T04:16:46;12.0;61.7
78455;SHT31;67751;51.986;5.696;2023-04-19T04:19:16;12.0;61.8
78455;SHT31;67751;51.986;5.696;2023-04-19T04:21:48;11.9;61.7
78455;SHT31;67751;51.986;5.696;2023-04-19T04:24:18;11.9;61.7
78455;SHT31;67751;51.986;5.696;2023-04-19T04:26:48;11.9;62.0
78455;SHT31;67751;51.986;5.696;2023-04-19T04:29:18;11.9;62.0
78455;SHT31;67751;51.986;5.696;2023-04-19T04:31:48;11.9;61.5
78455;SHT31;67751;51.986;5.696;2023-04-19T04:34:18;11.9;62.2
78455;SHT31;67751;51.986;5.696;2023-04-19T04:36:47;11.8;61.4
78455;SHT31;67751;51.986;5.696;2023-04-19T04:39:17;11.8;62.1
78455;SHT31;67751;51.986;5.696;2023-04-19T04:41:50;11.8;62.2
78455;SHT31;67751;51.986;5.696;2023-04-19T04:44:20;11.8;62.1
78455;SHT31;67751;51.986;5.696;2023-04-19T04:46:49;11.7;62.2
78455;SHT31;67751;51.986;5.696;2023-04-19T04:49:19;11.7;61.3
78455;SHT31;67751;51.986;5.696;2023-04-19T04:51:50;11.7;61.3
78455;SHT31;67751;51.986;5.696;2023-04-19T04:54:20;11.6;61.6
78455;SHT31;67751;51.986;5.696;2023-04-19T04:56:50;11.6;61.5
78455;SHT31;67751;51.986;5.696;2023-04-19T04:59:19;11.6;61.7
78455;SHT31;67751;51.986;5.696;2023-04-19T05:01:49;11.5;61.5
78455;SHT31;67751;51.986;5.696;2023-04-19T05:04:19;11.5;61.3
78455;SHT31;67751;51.986;5.696;2023-04-19T05:06:48;11.5;61.5
78455;SHT31;67751;51.986;5.696;2023-04-19T05:09:18;11.4;61.5
78455;SHT31;67751;51.986;5.696;2023-04-19T05:11:48;11.4;62.0
78455;SHT31;67751;51.986;5.696;2023-04-19T05:14:17;11.4;61.4
78455;SHT31;67751;51.986;5.696;2023-04-19T05:16:47;11.4;61.1
78455;SHT31;67751;51.986;5.696;2023-04-19T05:19:16;11.3;60.9
78455;SHT31;67751;51.986;5.696;2023-04-19T05:21:47;11.3;60.5
78455;SHT31;67751;51.986;5.696;2023-04-19T05:24:16;11.3;60.7
78455;SHT31;67751;51.986;5.696;2023-04-19T05:26:46;11.3;60.5
78455;SHT31;67751;51.986;5.696;2023-04-19T05:29:16;11.2;60.7
78455;SHT31;67751;51.986;5.696;2023-04-19T05:31:45;11.2;61.0
78455;SHT31;67751;51.986;5.696;2023-04-19T05:34:15;11.2;61.7
78455;SHT31;67751;51.986;5.696;2023-04-19T05:36:45;11.2;61.1
78455;SHT31;67751;51.986;5.696;2023-04-19T05:39:14;11.2;60.5
78455;SHT31;67751;51.986;5.696;2023-04-19T05:41:44;11.2;60.7
78455;SHT31;67751;51.986;5.696;2023-04-19T05:44:14;11.2;60.5
78455;SHT31;67751;51.986;5.696;2023-04-19T05:46:43;11.2;60.8
78455;SHT31;67751;51.986;5.696;2023-04-19T05:49:13;11.2;60.4
78455;SHT31;67751;51.986;5.696;2023-04-19T05:51:42;11.2;60.7
78455;SHT31;67751;51.986;5.696;2023-04-19T05:54:12;11.2;59.5
78455;SHT31;67751;51.986;5.696;2023-04-19T05:56:45;11.2;58.7
78455;SHT31;67751;51.986;5.696;2023-04-19T05:59:14;11.2;58.4
78455;SHT31;67751;51.986;5.696;2023-04-19T06:01:44;11.2;58.8
78455;SHT31;67751;51.986;5.696;2023-04-19T06:04:13;11.2;58.8
78455;SHT31;67751;51.986;5.696;2023-04-19T06:06:43;11.2;57.5
78455;SHT31;67751;51.986;5.696;2023-04-19T06:09:12;11.2;57.6
78455;SHT31;67751;51.986;5.696;2023-04-19T06:11:44;11.2;58.2
78455;SHT31;67751;51.986;5.696;2023-04-19T06:14:14;11.2;57.3
78455;SHT31;67751;51.986;5.696;2023-04-19T06:16:44;11.2;56.6
78455;SHT31;67751;51.986;5.696;2023-04-19T06:19:13;11.2;56.9
78455;SHT31;67751;51.986;5.696;2023-04-19T06:21:43;11.3;55.2
78455;SHT31;67751;51.986;5.696;2023-04-19T06:24:14;11.3;55.5
78455;SHT31;67751;51.986;5.696;2023-04-19T06:26:43;11.3;55.9
78455;SHT31;67751;51.986;5.696;2023-04-19T06:29:14;11.3;55.2
78455;SHT31;67751;51.986;5.696;2023-04-19T06:31:46;11.3;56.9
78455;SHT31;67751;51.986;5.696;2023-04-19T06:34:16;11.3;55.0
78455;SHT31;67751;51.986;5.696;2023-04-19T06:36:46;11.4;54.3
78455;SHT31;67751;51.986;5.696;2023-04-19T06:39:15;11.4;53.9
78455;SHT31;67751;51.986;5.696;2023-04-19T06:41:45;11.4;52.7
78455;SHT31;67751;51.986;5.696;2023-04-19T06:44:15;11.4;53.0
78455;SHT31;67751;51.986;5.696;2023-04-19T06:46:44;11.4;52.7
78455;SHT31;67751;51.986;5.696;2023-04-19T06:49:14;11.4;52.3
78455;SHT31;67751;51.986;5.696;2023-04-19T06:51:44;11.4;51.7
78455;SHT31;67751;51.986;5.696;2023-04-19T06:54:16;11.5;51.4
78455;SHT31;67751;51.986;5.696;2023-04-19T06:56:47;11.5;53.0
78455;SHT31;67751;51.986;5.696;2023-04-19T06:59:19;11.5;51.5
78455;SHT31;67751;51.986;5.696;2023-04-19T07:01:49;11.5;50.0
78455;SHT31;67751;51.986;5.696;2023-04-19T07:04:18;11.6;49.9
78455;SHT31;67751;51.986;5.696;2023-04-19T07:06:49;11.6;49.7
78455;SHT31;67751;51.986;5.696;2023-04-19T07:09:20;11.6;48.8
78455;SHT31;67751;51.986;5.696;2023-04-19T07:11:50;11.6;47.9
78455;SHT31;67751;51.986;5.696;2023-04-19T07:14:20;11.6;47.8
78455;SHT31;67751;51.986;5.696;2023-04-19T07:16:50;11.7;47.8
78455;SHT31;67751;51.986;5.696;2023-04-19T07:19:21;11.7;46.5
78455;SHT31;67751;51.986;5.696;2023-04-19T07:21:51;11.7;47.9
78455;SHT31;67751;51.986;5.696;2023-04-19T07:24:22;11.7;45.6
78455;SHT31;67751;51.986;5.696;2023-04-19T07:26:52;11.7;47.7
78455;SHT31;67751;51.986;5.696;2023-04-19T07:29:22;11.7;47.3
78455;SHT31;67751;51.986;5.696;2023-04-19T07:31:52;11.8;47.3
78455;SHT31;67751;51.986;5.696;2023-04-19T07:34:22;11.8;46.6
78455;SHT31;67751;51.986;5.696;2023-04-19T07:36:51;11.8;46.3
78455;SHT31;67751;51.986;5.696;2023-04-19T07:39:21;11.8;47.1
78455;SHT31;67751;51.986;5.696;2023-04-19T07:41:50;11.9;46.9
78455;SHT31;67751;51.986;5.696;2023-04-19T07:44:20;11.9;46.0
78455;SHT31;67751;51.986;5.696;2023-04-19T07:46:50;11.9;46.1
78455;SHT31;67751;51.986;5.696;2023-04-19T07:49:20;11.9;46.2
78455;SHT31;67751;51.986;5.696;2023-04-19T07:51:50;11.9;46.2
78455;SHT31;67751;51.986;5.696;2023-04-19T07:54:19;12.0;46.9
78455;SHT31;67751;51.986;5.696;2023-04-19T07:56:51;12.0;45.3
78455;SHT31;67751;51.986;5.696;2023-04-19T07:59:20;12.0;46.8
78455;SHT31;67751;51.986;5.696;2023-04-19T08:01:50;12.0;46.0
78455;SHT31;67751;51.986;5.696;2023-04-19T08:04:20;12.1;47.7
78455;SHT31;67751;51.986;5.696;2023-04-19T08:06:51;12.1;46.2
78455;SHT31;67751;51.986;5.696;2023-04-19T08:09:21;12.2;45.9
78455;SHT31;67751;51.986;5.696;2023-04-19T08:11:51;12.2;44.8
78455;SHT31;67751;51.986;5.696;2023-04-19T08:14:20;12.3;43.9
78455;SHT31;67751;51.986;5.696;2023-04-19T08:16:50;12.3;45.4
78455;SHT31;67751;51.986;5.696;2023-04-19T08:19:20;12.3;45.5
78455;SHT31;67751;51.986;5.696;2023-04-19T08:21:50;12.4;44.0
78455;SHT31;67751;51.986;5.696;2023-04-19T08:24:19;12.4;43.2
78455;SHT31;67751;51.986;5.696;2023-04-19T08:26:49;12.4;42.8
78455;SHT31;67751;51.986;5.696;2023-04-19T08:29:22;12.5;42.6
78455;SHT31;67751;51.986;5.696;2023-04-19T08:31:52;12.5;43.1
78455;SHT31;67751;51.986;5.696;2023-04-19T08:34:22;12.5;43.4
78455;SHT31;67751;51.986;5.696;2023-04-19T08:36:51;12.6;43.7
78455;SHT31;67751;51.986;5.696;2023-04-19T08:39:21;12.6;44.9
78455;SHT31;67751;51.986;5.696;2023-04-19T08:41:51;12.7;43.4
78455;SHT31;67751;51.986;5.696;2023-04-19T08:44:21;12.8;43.0
78455;SHT31;67751;51.986;5.696;2023-04-19T08:46:51;12.8;42.0
78455;SHT31;67751;51.986;5.696;2023-04-19T08:49:21;12.9;44.1
78455;SHT31;67751;51.986;5.696;2023-04-19T08:51:52;13.0;42.0
78455;SHT31;67751;51.986;5.696;2023-04-19T08:54:22;13.0;40.4
78455;SHT31;67751;51.986;5.696;2023-04-19T08:56:53;13.1;41.3
78455;SHT31;67751;51.986;5.696;2023-04-19T08:59:23;13.1;39.9
78455;SHT31;67751;51.986;5.696;2023-04-19T09:01:53;13.2;39.4
78455;SHT31;67751;51.986;5.696;2023-04-19T09:04:25;13.2;39.1
78455;SHT31;67751;51.986;5.696;2023-04-19T09:06:55;13.3;38.7
78455;SHT31;67751;51.986;5.696;2023-04-19T09:09:27;13.3;38.7
78455;SHT31;67751;51.986;5.696;2023-04-19T09:11:57;13.4;39.5
78455;SHT31;67751;51.986;5.696;2023-04-19T09:14:27;13.4;41.4
78455;SHT31;67751;51.986;5.696;2023-04-19T09:17:12;13.5;39.4
78455;SHT31;67751;51.986;5.696;2023-04-19T09:19:48;13.6;40.1
78455;SHT31;67751;51.986;5.696;2023-04-19T09:22:18;13.7;39.2
78455;SHT31;67751;51.986;5.696;2023-04-19T09:24:48;13.7;38.7
78455;SHT31;67751;51.986;5.696;2023-04-19T09:27:26;13.8;39.5
78455;SHT31;67751;51.986;5.696;2023-04-19T09:29:59;13.9;39.3
78455;SHT31;67751;51.986;5.696;2023-04-19T09:32:45;13.9;38.8
78455;SHT31;67751;51.986;5.696;2023-04-19T09:35:16;14.0;37.2
78455;SHT31;67751;51.986;5.696;2023-04-19T09:37:59;14.0;36.1
78455;SHT31;67751;51.986;5.696;2023-04-19T09:40:30;14.1;37.3
78455;SHT31;67751;51.986;5.696;2023-04-19T09:42:59;14.1;38.4
78455;SHT31;67751;51.986;5.696;2023-04-19T09:45:42;14.1;36.6
78455;SHT31;67751;51.986;5.696;2023-04-19T09:48:12;14.2;37.4
78455;SHT31;67751;51.986;5.696;2023-04-19T09:50:53;14.2;38.6
78455;SHT31;67751;51.986;5.696;2023-04-19T09:53:24;14.2;36.7
78455;SHT31;67751;51.986;5.696;2023-04-19T09:55:54;14.3;37.0
78455;SHT31;67751;51.986;5.696;2023-04-19T09:58:25;14.3;36.7
78455;SHT31;67751;51.986;5.696;2023-04-19T10:00:55;14.4;37.0
78455;SHT31;67751;51.986;5.696;2023-04-19T10:03:28;14.4;38.1
78455;SHT31;67751;51.986;5.696;2023-04-19T10:05:59;14.5;37.5
78455;SHT31;67751;51.986;5.696;2023-04-19T10:08:29;14.5;38.8
78455;SHT31;67751;51.986;5.696;2023-04-19T10:11:00;14.6;37.9
78455;SHT31;67751;51.986;5.696;2023-04-19T10:13:30;14.6;35.3
78455;SHT31;67751;51.986;5.696;2023-04-19T10:16:00;14.7;37.7
78455;SHT31;67751;51.986;5.696;2023-04-19T10:18:31;14.7;38.0
78455;SHT31;67751;51.986;5.696;2023-04-19T10:21:05;14.8;36.0
78455;SHT31;67751;51.986;5.696;2023-04-19T10:23:36;14.8;37.6
78455;SHT31;67751;51.986;5.696;2023-04-19T10:26:06;14.9;36.5
78455;SHT31;67751;51.986;5.696;2023-04-19T10:28:36;14.9;35.9
78455;SHT31;67751;51.986;5.696;2023-04-19T10:31:10;15.0;36.7
78455;SHT31;67751;51.986;5.696;2023-04-19T10:33:41;15.0;36.5
78455;SHT31;67751;51.986;5.696;2023-04-19T10:36:14;15.0;35.0
78455;SHT31;67751;51.986;5.696;2023-04-19T10:38:45;15.1;35.5
78455;SHT31;67751;51.986;5.696;2023-04-19T10:41:18;15.1;36.3
78455;SHT31;67751;51.986;5.696;2023-04-19T10:44:10;15.1;36.0
78455;SHT31;67751;51.986;5.696;2023-04-19T10:46:39;15.2;36.4
78455;SHT31;67751;51.986;5.696;2023-04-19T10:49:11;15.2;37.4
78455;SHT31;67751;51.986;5.696;2023-04-19T10:51:48;15.3;36.1
78455;SHT31;67751;51.986;5.696;2023-04-19T10:54:30;15.3;33.6
78455;SHT31;67751;51.986;5.696;2023-04-19T10:57:02;15.4;34.5
78455;SHT31;67751;51.986;5.696;2023-04-19T10:59:33;15.4;34.6
78455;SHT31;67751;51.986;5.696;2023-04-19T11:02:05;15.4;33.6
78455;SHT31;67751;51.986;5.696;2023-04-19T11:05:21;15.4;35.4
78455;SHT31;67751;51.986;5.696;2023-04-19T11:07:50;15.5;34.5
78455;SHT31;67751;51.986;5.696;2023-04-19T11:10:29;15.5;34.6
78455;SHT31;67751;51.986;5.696;2023-04-19T11:12:59;15.5;34.6
78455;SHT31;67751;51.986;5.696;2023-04-19T11:15:29;15.6;34.7
78455;SHT31;67751;51.986;5.696;2023-04-19T11:17:58;15.6;34.1
78455;SHT31;67751;51.986;5.696;2023-04-19T11:20:29;15.7;33.8
78455;SHT31;67751;51.986;5.696;2023-04-19T11:22:58;15.7;31.8
78455;SHT31;67751;51.986;5.696;2023-04-19T11:25:28;15.7;33.2
78455;SHT31;67751;51.986;5.696;2023-04-19T11:28:00;15.8;33.3
78455;SHT31;67751;51.986;5.696;2023-04-19T11:30:30;15.8;33.1
78455;SHT31;67751;51.986;5.696;2023-04-19T11:33:00;15.8;32.2
78455;SHT31;67751;51.986;5.696;2023-04-19T11:35:30;15.8;31.2
78455;SHT31;67751;51.986;5.696;2023-04-19T11:38:00;15.9;32.5
78455;SHT31;67751;51.986;5.696;2023-04-19T11:40:32;15.9;29.8
78455;SHT31;67751;51.986;5.696;2023-04-19T11:43:04;15.9;31.0
78455;SHT31;67751;51.986;5.696;2023-04-19T11:45:35;15.9;31.3
78455;SHT31;67751;51.986;5.696;2023-04-19T11:48:08;16.0;31.7
78455;SHT31;67751;51.986;5.696;2023-04-19T11:50:42;16.0;31.5
78455;SHT31;67751;51.986;5.696;2023-04-19T11:53:15;16.0;30.3
78455;SHT31;67751;51.986;5.696;2023-04-19T11:55:47;16.1;30.4
78455;SHT31;67751;51.986;5.696;2023-04-19T11:58:30;16.1;32.0
78455;SHT31;67751;51.986;5.696;2023-04-19T12:01:04;16.1;29.7
78455;SHT31;67751;51.986;5.696;2023-04-19T12:03:40;16.2;30.4
78455;SHT31;67751;51.986;5.696;2023-04-19T12:06:13;16.2;31.8
78455;SHT31;67751;51.986;5.696;2023-04-19T12:08:45;16.2;30.5
78455;SHT31;67751;51.986;5.696;2023-04-19T12:11:16;16.3;32.1
78455;SHT31;67751;51.986;5.696;2023-04-19T12:13:54;16.3;29.4
78455;SHT31;67751;51.986;5.696;2023-04-19T12:16:28;16.3;30.6
78455;SHT31;67751;51.986;5.696;2023-04-19T12:18:57;16.3;28.7
78455;SHT31;67751;51.986;5.696;2023-04-19T12:21:28;16.3;28.2
78455;SHT31;67751;51.986;5.696;2023-04-19T12:24:02;16.3;33.4
78455;SHT31;67751;51.986;5.696;2023-04-19T12:26:32;16.4;31.6
78455;SHT31;67751;51.986;5.696;2023-04-19T12:29:02;16.4;30.7
78455;SHT31;67751;51.986;5.696;2023-04-19T12:31:34;16.4;27.8
78455;SHT31;67751;51.986;5.696;2023-04-19T12:34:05;16.5;31.4
78455;SHT31;67751;51.986;5.696;2023-04-19T12:36:35;16.5;31.3
78455;SHT31;67751;51.986;5.696;2023-04-19T12:39:05;16.5;30.3
78455;SHT31;67751;51.986;5.696;2023-04-19T12:41:35;16.5;29.3
78455;SHT31;67751;51.986;5.696;2023-04-19T12:44:04;16.5;28.4
78455;SHT31;67751;51.986;5.696;2023-04-19T12:46:34;16.5;30.9
78455;SHT31;67751;51.986;5.696;2023-04-19T12:49:03;16.5;29.1
78455;SHT31;67751;51.986;5.696;2023-04-19T12:51:33;16.5;29.5
78455;SHT31;67751;51.986;5.696;2023-04-19T12:54:02;16.6;30.3
78455;SHT31;67751;51.986;5.696;2023-04-19T12:56:34;16.6;30.1
78455;SHT31;67751;51.986;5.696;2023-04-19T12:59:03;16.6;31.3
78455;SHT31;67751;51.986;5.696;2023-04-19T13:01:34;16.6;30.7
78455;SHT31;67751;51.986;5.696;2023-04-19T13:04:04;16.6;30.7
78455;SHT31;67751;51.986;5.696;2023-04-19T13:06:38;16.6;30.5
78455;SHT31;67751;51.986;5.696;2023-04-19T13:09:08;16.6;29.7
78455;SHT31;67751;51.986;5.696;2023-04-19T13:11:38;16.6;30.1
78455;SHT31;67751;51.986;5.696;2023-04-19T13:14:07;16.6;29.1
78455;SHT31;67751;51.986;5.696;2023-04-19T13:16:37;16.6;28.9
78455;SHT31;67751;51.986;5.696;2023-04-19T13:19:06;16.6;31.3
78455;SHT31;67751;51.986;5.696;2023-04-19T13:21:36;16.7;30.1
78455;SHT31;67751;51.986;5.696;2023-04-19T13:24:07;16.7;30.2
78455;SHT31;67751;51.986;5.696;2023-04-19T13:26:37;16.7;29.1
78455;SHT31;67751;51.986;5.696;2023-04-19T13:29:07;16.7;30.0
78455;SHT31;67751;51.986;5.696;2023-04-19T13:31:36;16.7;30.5
78455;SHT31;67751;51.986;5.696;2023-04-19T13:34:06;16.7;29.6
78455;SHT31;67751;51.986;5.696;2023-04-19T13:36:36;16.7;27.6
78455;SHT31;67751;51.986;5.696;2023-04-19T13:39:07;16.7;28.9
78455;SHT31;67751;51.986;5.696;2023-04-19T13:41:37;16.7;30.2
78455;SHT31;67751;51.986;5.696;2023-04-19T13:44:07;16.7;29.7
78455;SHT31;67751;51.986;5.696;2023-04-19T13:46:37;16.7;28.8
78455;SHT31;67751;51.986;5.696;2023-04-19T13:49:06;16.7;29.8
78455;SHT31;67751;51.986;5.696;2023-04-19T13:51:36;16.6;29.9
78455;SHT31;67751;51.986;5.696;2023-04-19T13:54:08;16.6;29.0
78455;SHT31;67751;51.986;5.696;2023-04-19T13:56:37;16.6;28.4
78455;SHT31;67751;51.986;5.696;2023-04-19T13:59:07;16.6;27.3
78455;SHT31;67751;51.986;5.696;2023-04-19T14:01:36;16.6;28.2
78455;SHT31;67751;51.986;5.696;2023-04-19T14:04:06;16.6;29.3
78455;SHT31;67751;51.986;5.696;2023-04-19T14:06:35;16.6;27.2
78455;SHT31;67751;51.986;5.696;2023-04-19T14:09:05;16.6;26.5
78455;SHT31;67751;51.986;5.696;2023-04-19T14:11:35;16.6;27.5
78455;SHT31;67751;51.986;5.696;2023-04-19T14:14:05;16.6;27.8
78455;SHT31;67751;51.986;5.696;2023-04-19T14:16:34;16.6;28.3
78455;SHT31;67751;51.986;5.696;2023-04-19T14:19:04;16.6;30.4
78455;SHT31;67751;51.986;5.696;2023-04-19T14:21:33;16.6;29.4
78455;SHT31;67751;51.986;5.696;2023-04-19T14:24:04;16.7;29.9
78455;SHT31;67751;51.986;5.696;2023-04-19T14:26:34;16.7;29.5
78455;SHT31;67751;51.986;5.696;2023-04-19T14:29:03;16.7;29.6
78455;SHT31;67751;51.986;5.696;2023-04-19T14:31:33;16.7;29.9
78455;SHT31;67751;51.986;5.696;2023-04-19T14:34:02;16.7;30.5
78455;SHT31;67751;51.986;5.696;2023-04-19T14:36:33;16.7;29.2
78455;SHT31;67751;51.986;5.696;2023-04-19T14:39:03;16.7;29.1
78455;SHT31;67751;51.986;5.696;2023-04-19T14:41:32;16.7;28.8
78455;SHT31;67751;51.986;5.696;2023-04-19T14:44:02;16.7;29.3
78455;SHT31;67751;51.986;5.696;2023-04-19T14:46:32;16.7;30.3
78455;SHT31;67751;51.986;5.696;2023-04-19T14:49:01;16.7;30.8
78455;SHT31;67751;51.986;5.696;2023-04-19T14:51:32;16.7;31.2
78455;SHT31;67751;51.986;5.696;2023-04-19T14:54:02;16.7;29.3
78455;SHT31;67751;51.986;5.696;2023-04-19T14:56:31;16.7;30.8
78455;SHT31;67751;51.986;5.696;2023-04-19T14:59:01;16.6;30.6
78455;SHT31;67751;51.986;5.696;2023-04-19T15:01:32;16.6;31.0
78455;SHT31;67751;51.986;5.696;2023-04-19T15:04:02;16.6;31.5
78455;SHT31;67751;51.986;5.696;2023-04-19T15:06:32;16.6;31.9
78455;SHT31;67751;51.986;5.696;2023-04-19T15:09:03;16.6;30.5
78455;SHT31;67751;51.986;5.696;2023-04-19T15:11:33;16.6;32.3
78455;SHT31;67751;51.986;5.696;2023-04-19T15:14:03;16.6;31.7
78455;SHT31;67751;51.986;5.696;2023-04-19T15:16:32;16.6;31.9
78455;SHT31;67751;51.986;5.696;2023-04-19T15:19:02;16.6;29.5
78455;SHT31;67751;51.986;5.696;2023-04-19T15:21:33;16.5;30.4
78455;SHT31;67751;51.986;5.696;2023-04-19T15:24:06;16.5;31.5
78455;SHT31;67751;51.986;5.696;2023-04-19T15:26:36;16.5;31.6
78455;SHT31;67751;51.986;5.696;2023-04-19T15:29:05;16.5;31.7
78455;SHT31;67751;51.986;5.696;2023-04-19T15:31:35;16.5;30.8
78455;SHT31;67751;51.986;5.696;2023-04-19T15:34:05;16.5;31.1
78455;SHT31;67751;51.986;5.696;2023-04-19T15:36:34;16.5;31.1
78455;SHT31;67751;51.986;5.696;2023-04-19T15:39:04;16.4;31.1
78455;SHT31;67751;51.986;5.696;2023-04-19T15:41:34;16.4;30.7
78455;SHT31;67751;51.986;5.696;2023-04-19T15:44:04;16.4;30.8
78455;SHT31;67751;51.986;5.696;2023-04-19T15:46:34;16.3;31.5
78455;SHT31;67751;51.986;5.696;2023-04-19T15:49:04;16.3;32.4
78455;SHT31;67751;51.986;5.696;2023-04-19T15:51:34;16.3;33.1
78455;SHT31;67751;51.986;5.696;2023-04-19T15:54:05;16.3;32.9
78455;SHT31;67751;51.986;5.696;2023-04-19T15:56:34;16.3;33.2
78455;SHT31;67751;51.986;5.696;2023-04-19T15:59:04;16.3;33.2
78455;SHT31;67751;51.986;5.696;2023-04-19T16:01:33;16.3;32.2
78455;SHT31;67751;51.986;5.696;2023-04-19T16:04:03;16.3;32.6
78455;SHT31;67751;51.986;5.696;2023-04-19T16:06:33;16.3;31.6
78455;SHT31;67751;51.986;5.696;2023-04-19T16:09:02;16.3;32.8
78455;SHT31;67751;51.986;5.696;2023-04-19T16:11:32;16.3;32.0
78455;SHT31;67751;51.986;5.696;2023-04-19T16:14:02;16.3;32.8
78455;SHT31;67751;51.986;5.696;2023-04-19T16:16:32;16.3;33.5
78455;SHT31;67751;51.986;5.696;2023-04-19T16:19:02;16.2;33.0
78455;SHT31;67751;51.986;5.696;2023-04-19T16:21:31;16.2;33.1
78455;SHT31;67751;51.986;5.696;2023-04-19T16:24:01;16.2;32.6